Terminal Aerodrome Forecast
Issued by NWS

Home | Current Version | Previous Version | Text Only | Print | Product List | Glossary On
Versions: 1 2 3 4 5 6 7 8 9 10 11 12 13 14 15 16 17 18 19 20 21 22 23 24 25 26 27 28 29 30 31 32 33 34 35 36 37 38 39 40 41 42 43 44 45 46 47 48 49 50
000
FTAK31 PANC 271740
TAFASN
TAF
PASN 271740Z 2718/2818 08012KT 4SM -RA BR BKN002 OVC009
      TEMPO 2718/2722 1SM -RA BR SCT002 OVC009
     FM280200 18008KT 3SM BR SCT002 OVC008
     FM281200 18008KT 1 1/2SM BR BKN002 OVC008=

USA.gov is the U.S. government's official web portal to all federal, state and local government web resources and services.